Time;durP1;ratioP1;P1;durP2;ratioP2;P2;SDS_P1;SDS_P2;PMS_P1;PMS_P2;Temp;Humidity;BMP_temperature;BMP_pressure;BME280_temperature;BME280_humidity;BME280_pressure;Samples;Min_cycle;Max_cycle;Signal;HPM_P1;HPM_P2
2021/05/30 00:01:48;;;;;;;5.80;3.62;;;;;;;16.42;67.07;100069.20;1707123;82;21093;-72
2021/05/30 00:04:15;;;;;;;7.00;3.80;;;;;;;16.41;67.13;100066.24;1737541;80;21204;-72
2021/05/30 00:06:42;;;;;;;7.20;4.05;;;;;;;16.41;67.20;100072.03;1741501;80;21147;-73
2021/05/30 00:09:09;;;;;;;6.25;3.58;;;;;;;16.38;67.30;100070.56;1736916;81;21661;-74
2021/05/30 00:11:37;;;;;;;5.70;3.50;;;;;;;16.31;67.54;100067.75;1730890;80;21105;-72
2021/05/30 00:14:05;;;;;;;6.17;4.12;;;;;;;16.30;67.61;100074.04;1728089;82;21669;-72
2021/05/30 00:16:32;;;;;;;6.42;3.67;;;;;;;16.35;67.53;100081.51;1738073;82;21537;-73
2021/05/30 00:19:00;;;;;;;6.50;4.20;;;;;;;16.34;67.59;100075.89;1756503;81;21093;-71
2021/05/30 00:21:27;;;;;;;5.83;3.62;;;;;;;16.32;67.59;100083.16;1743437;80;21126;-72
2021/05/30 00:23:58;;;;;;;5.83;3.50;;;;;;;16.28;67.76;100083.19;1734251;80;21580;-72
2021/05/30 00:26:25;;;;;;;5.65;3.98;;;;;;;16.26;67.93;100086.52;1736834;82;21043;-72
2021/05/30 00:28:51;;;;;;;7.05;4.53;;;;;;;16.24;67.95;100085.83;1732314;80;21168;-72
2021/05/30 00:31:20;;;;;;;7.42;4.67;;;;;;;16.21;67.90;100093.64;1734601;82;21386;-73
2021/05/30 00:33:48;;;;;;;6.55;4.33;;;;;;;16.17;67.62;100093.63;1737787;80;21644;-73
2021/05/30 00:36:14;;;;;;;6.55;4.10;;;;;;;16.16;67.48;100099.44;1760331;80;21618;-73
2021/05/30 00:38:43;;;;;;;8.15;4.33;;;;;;;16.11;67.35;100096.45;1714403;82;21152;-73
2021/05/30 00:41:09;;;;;;;7.35;4.60;;;;;;;16.00;67.58;100101.27;1737804;80;21082;-72
2021/05/30 00:43:51;;;;;;;8.93;4.05;;;;;;;15.83;67.90;100096.44;1733443;80;21071;-72
2021/05/30 00:46:18;;;;;;;7.85;4.50;;;;;;;15.70;68.21;100101.70;1744639;81;21117;-73
2021/05/30 00:48:46;;;;;;;6.50;4.67;;;;;;;15.59;68.51;100102.83;1753353;80;21079;-70
2021/05/30 00:51:13;;;;;;;5.95;3.95;;;;;;;15.52;68.84;100103.66;1737178;80;21084;-70
2021/05/30 00:53:43;;;;;;;7.58;4.60;;;;;;;15.52;68.90;100106.31;1767512;80;21024;-72
2021/05/30 00:56:16;;;;;;;6.92;4.20;;;;;;;15.51;68.83;100111.27;1764517;79;21098;-71
2021/05/30 00:58:41;;;;;;;7.42;4.33;;;;;;;15.46;68.99;100113.57;1769796;79;21096;-74
2021/05/30 01:01:07;;;;;;;7.08;4.33;;;;;;;15.37;69.15;100104.77;1755199;80;21103;-72
2021/05/30 01:03:38;;;;;;;6.12;4.42;;;;;;;15.31;69.34;100103.57;1766646;80;21106;-73
2021/05/30 01:06:05;;;;;;;8.35;5.10;;;;;;;15.28;69.37;100101.27;1744910;80;21583;-72
2021/05/30 01:08:33;;;;;;;8.25;4.78;;;;;;;15.26;69.43;100101.90;1753457;80;21077;-72
2021/05/30 01:11:00;;;;;;;6.80;4.15;;;;;;;15.26;69.52;100099.25;1742579;80;21155;-72
2021/05/30 01:13:28;;;;;;;6.15;4.47;;;;;;;15.29;69.49;100096.28;1773988;79;21105;-72
2021/05/30 01:15:55;;;;;;;6.67;4.08;;;;;;;15.36;69.16;100089.34;1739367;80;21133;-73
2021/05/30 01:18:25;;;;;;;8.43;4.25;;;;;;;15.40;69.09;100089.37;1738352;81;21649;-72
2021/05/30 01:20:55;;;;;;;8.43;5.40;;;;;;;15.42;69.06;100092.67;1741135;80;21078;-73
2021/05/30 01:23:21;;;;;;;6.40;4.33;;;;;;;15.45;69.00;100092.02;1741730;80;21140;-73
2021/05/30 01:25:48;;;;;;;8.65;5.03;;;;;;;15.41;68.95;100091.01;1763673;80;21565;-71
2021/05/30 01:28:14;;;;;;;6.85;4.47;;;;;;;15.37;69.06;100084.89;1760510;79;21026;-72
2021/05/30 01:30:41;;;;;;;8.08;3.45;;;;;;;15.35;69.15;100085.05;1736784;81;21123;-72
2021/05/30 01:33:08;;;;;;;7.47;4.20;;;;;;;15.37;69.03;100080.41;1743254;79;21092;-72
2021/05/30 01:35:35;;;;;;;8.10;3.90;;;;;;;15.45;68.82;100090.22;1733702;79;21067;-72
2021/05/30 01:38:02;;;;;;;6.10;4.33;;;;;;;15.50;68.80;100091.03;1773777;79;21068;-72
2021/05/30 01:40:29;;;;;;;6.47;3.98;;;;;;;15.54;68.76;100087.08;1734722;80;21021;-72
2021/05/30 01:42:57;;;;;;;6.37;4.53;;;;;;;15.54;68.80;100088.41;1766004;79;21159;-72
2021/05/30 01:45:28;;;;;;;7.87;4.30;;;;;;;15.53;68.79;100089.39;1741633;80;21118;-71
2021/05/30 01:47:53;;;;;;;6.75;4.12;;;;;;;15.51;68.78;100085.57;1740638;79;21085;-72
2021/05/30 01:50:23;;;;;;;6.58;4.53;;;;;;;15.51;68.85;100092.70;1761981;79;21047;-72
2021/05/30 01:52:51;;;;;;;7.28;4.50;;;;;;;15.50;68.88;100091.03;1759778;79;21587;-71
2021/05/30 01:55:28;;;;;;;7.22;4.28;;;;;;;15.54;68.79;100085.25;1722807;81;21107;-72
2021/05/30 01:57:54;;;;;;;6.05;4.10;;;;;;;15.62;68.70;100081.80;1730108;80;21100;-72
2021/05/30 02:00:21;;;;;;;7.47;4.33;;;;;;;15.67;68.62;100085.27;1705498;82;21112;-73
2021/05/30 02:02:55;;;;;;;7.62;3.70;;;;;;;15.69;68.57;100086.77;1704123;82;21072;-72
2021/05/30 02:05:23;;;;;;;6.67;4.70;;;;;;;15.72;68.75;100086.45;1728039;82;21138;-73
2021/05/30 02:07:51;;;;;;;7.53;5.12;;;;;;;15.79;68.61;100082.68;1726189;82;21116;-73
2021/05/30 02:10:19;;;;;;;6.67;4.83;;;;;;;15.81;68.37;100087.83;1733614;82;21096;-73
2021/05/30 02:12:47;;;;;;;6.35;4.53;;;;;;;15.76;68.43;100078.52;1711068;82;21088;-72
2021/05/30 02:15:15;;;;;;;5.65;3.58;;;;;;;15.73;68.58;100080.13;1727482;82;21037;-71
2021/05/30 02:17:41;;;;;;;9.23;4.30;;;;;;;15.77;68.55;100084.67;1699958;82;21469;-72
2021/05/30 02:20:09;;;;;;;6.10;3.95;;;;;;;15.79;68.65;100082.68;1730280;82;21131;-72
2021/05/30 02:22:36;;;;;;;7.30;4.70;;;;;;;15.78;68.71;100085.84;1698632;82;21057;-72
2021/05/30 02:25:04;;;;;;;6.15;3.87;;;;;;;15.71;68.71;100088.76;1729397;80;21642;-73
2021/05/30 02:27:31;;;;;;;7.35;4.42;;;;;;;15.62;68.86;100095.06;1729701;80;21108;-72
2021/05/30 02:29:59;;;;;;;5.58;3.77;;;;;;;15.54;69.04;100106.97;1733497;82;21653;-72
2021/05/30 02:32:26;;;;;;;10.85;3.45;;;;;;;15.51;69.17;100112.09;1731153;81;21091;-73
2021/05/30 02:34:53;;;;;;;6.95;4.05;;;;;;;15.52;69.17;100115.59;1732617;82;21065;-71
2021/05/30 02:37:20;;;;;;;8.23;3.77;;;;;;;15.54;69.13;100110.44;1730010;82;21166;-73
2021/05/30 02:39:47;;;;;;;6.20;3.77;;;;;;;15.54;69.25;100111.77;1733827;82;21116;-72
2021/05/30 02:42:13;;;;;;;6.62;4.10;;;;;;;15.58;69.25;100114.92;1732384;82;21032;-74
2021/05/30 02:44:40;;;;;;;8.45;3.52;;;;;;;15.60;69.05;100111.61;1734329;81;21421;-74
2021/05/30 02:47:07;;;;;;;6.12;3.85;;;;;;;15.59;68.84;100109.97;1728661;81;21025;-72
2021/05/30 02:49:34;;;;;;;7.03;3.50;;;;;;;15.57;68.72;100115.42;1711807;82;21130;-73
2021/05/30 02:52:01;;;;;;;10.32;3.70;;;;;;;15.56;68.26;100115.59;1727158;82;21155;-71
2021/05/30 02:54:28;;;;;;;9.18;3.67;;;;;;;15.57;68.15;100118.58;1725469;82;21088;-74
2021/05/30 02:56:55;;;;;;;8.00;3.42;;;;;;;15.59;68.02;100116.09;1706192;82;21075;-71
2021/05/30 02:59:22;;;;;;;7.58;3.80;;;;;;;15.64;68.09;100114.28;1757212;79;21589;-72
2021/05/30 03:01:48;;;;;;;7.03;3.80;;;;;;;15.64;67.95;100105.00;1766978;80;21091;-74
2021/05/30 03:04:15;;;;;;;10.10;4.22;;;;;;;15.62;67.96;100112.30;1740158;80;21120;-75
2021/05/30 03:06:42;;;;;;;7.42;3.90;;;;;;;15.59;68.34;100111.29;1761278;79;21115;-68
2021/05/30 03:09:09;;;;;;;7.45;4.08;;;;;;;15.60;68.19;100111.61;1732021;81;21089;-67
2021/05/30 03:11:36;;;;;;;8.95;3.65;;;;;;;15.63;68.34;100109.96;1766921;79;21693;-66
2021/05/30 03:14:03;;;;;;;6.03;3.72;;;;;;;15.61;68.55;100110.63;1737951;80;21090;-65
2021/05/30 03:16:30;;;;;;;8.38;3.85;;;;;;;15.56;68.73;100109.78;1773235;79;21173;-69
2021/05/30 03:18:57;;;;;;;7.72;3.62;;;;;;;15.51;68.96;100108.61;1764779;79;21051;-66
2021/05/30 03:21:24;;;;;;;5.90;3.60;;;;;;;15.52;69.06;100107.63;1730432;80;21124;-65
2021/05/30 03:23:51;;;;;;;7.78;4.08;;;;;;;15.59;69.16;100106.81;1739699;79;21014;-66
2021/05/30 03:26:18;;;;;;;6.08;4.35;;;;;;;15.59;69.38;100105.98;1760733;79;21256;-65
2021/05/30 03:28:47;;;;;;;8.33;4.20;;;;;;;15.60;69.60;100108.95;1763494;79;21117;-66
2021/05/30 03:31:14;;;;;;;6.80;3.45;;;;;;;15.65;69.65;100111.13;1758297;79;21607;-67
2021/05/30 03:33:41;;;;;;;6.15;3.62;;;;;;;15.72;69.31;100112.16;1778964;79;21682;-69
2021/05/30 03:36:13;;;;;;;5.78;3.75;;;;;;;15.76;69.03;100115.66;1707627;82;21173;-69
2021/05/30 03:38:37;;;;;;;7.15;3.92;;;;;;;15.77;68.76;100113.34;1737447;79;21312;-67
2021/05/30 03:41:05;;;;;;;8.30;3.45;;;;;;;15.78;68.69;100119.47;1744564;80;21151;-67
2021/05/30 03:43:33;;;;;;;5.90;3.17;;;;;;;15.80;67.97;100114.83;1761787;78;21080;-67
2021/05/30 03:46:00;;;;;;;5.72;3.10;;;;;;;15.88;67.86;100119.33;1771857;79;21122;-69
2021/05/30 03:48:26;;;;;;;6.35;3.83;;;;;;;15.90;67.65;100115.53;1740430;80;21124;-70
2021/05/30 03:50:53;;;;;;;7.05;3.60;;;;;;;15.91;67.94;100119.01;1749681;80;21650;-70
2021/05/30 03:53:20;;;;;;;6.65;3.75;;;;;;;15.93;68.04;100118.34;1739192;80;21139;-70
2021/05/30 03:55:49;;;;;;;5.33;3.58;;;;;;;15.99;67.95;100121.67;1764946;79;21033;-67
2021/05/30 03:58:15;;;;;;;5.55;3.00;;;;;;;16.11;67.85;100124.33;1741736;80;21101;-68
2021/05/30 04:00:42;;;;;;;7.35;3.62;;;;;;;16.15;67.93;100127.47;1745896;80;21102;-70
2021/05/30 04:03:09;;;;;;;6.42;3.67;;;;;;;16.22;68.07;100127.13;1731726;80;21190;-69
2021/05/30 04:05:36;;;;;;;5.83;3.50;;;;;;;16.30;67.95;100132.95;1767666;79;21051;-67
2021/05/30 04:08:04;;;;;;;5.78;3.33;;;;;;;16.38;67.61;100134.28;1755693;80;21161;-68
2021/05/30 04:10:31;;;;;;;5.00;2.90;;;;;;;16.49;67.26;100131.30;1776624;80;21111;-68
2021/05/30 04:12:58;;;;;;;9.05;3.42;;;;;;;16.64;66.71;100127.47;1744898;80;21192;-71
2021/05/30 04:15:24;;;;;;;8.35;3.20;;;;;;;16.75;66.35;100122.28;1754434;80;21134;-68
2021/05/30 04:17:52;;;;;;;8.35;4.22;;;;;;;16.81;66.07;100120.29;1752522;80;21179;-68
2021/05/30 04:20:20;;;;;;;6.17;3.15;;;;;;;16.86;66.04;100115.32;1756842;79;21083;-69
2021/05/30 04:22:48;;;;;;;4.85;2.70;;;;;;;16.88;65.64;100115.97;1772714;80;21112;-70
2021/05/30 04:25:15;;;;;;;5.50;2.90;;;;;;;16.89;65.11;100116.31;1771247;80;21578;-69
2021/05/30 04:27:43;;;;;;;7.37;2.80;;;;;;;16.89;64.58;100110.15;1765762;80;21151;-68
2021/05/30 04:30:11;;;;;;;7.87;2.87;;;;;;;16.94;64.47;100109.13;1766030;79;21837;-70
2021/05/30 04:32:38;;;;;;;5.60;2.87;;;;;;;16.98;64.52;100110.47;1757498;79;21127;-70
2021/05/30 04:35:06;;;;;;;5.83;2.90;;;;;;;16.99;63.95;100107.30;1757626;80;21606;-68
2021/05/30 04:37:33;;;;;;;4.70;2.40;;;;;;;16.93;62.67;100101.33;1756479;80;21136;-71
2021/05/30 04:40:00;;;;;;;4.95;2.67;;;;;;;16.84;62.78;100096.52;1736201;81;21630;-70
2021/05/30 04:42:27;;;;;;;6.22;2.95;;;;;;;16.70;63.23;100090.91;1742299;80;21111;-72
2021/05/30 04:44:53;;;;;;;5.47;2.72;;;;;;;16.70;63.54;100096.72;1725635;80;21056;-71
2021/05/30 04:47:20;;;;;;;5.65;2.98;;;;;;;16.74;63.46;100094.55;1712343;81;21665;-73
2021/05/30 04:49:46;;;;;;;5.10;2.77;;;;;;;16.68;63.50;100102.20;1726479;81;21115;-74
2021/05/30 04:52:13;;;;;;;5.22;2.83;;;;;;;16.65;63.63;100103.05;1743604;81;21159;-75
2021/05/30 04:54:40;;;;;;;8.88;2.92;;;;;;;16.64;63.94;100109.34;1729819;80;21147;-69
2021/05/30 04:57:07;;;;;;;4.83;2.77;;;;;;;16.61;63.91;100112.34;1768678;80;21042;-76
2021/05/30 04:59:34;;;;;;;5.17;2.80;;;;;;;16.69;64.19;100108.34;1754877;80;22599;-69
2021/05/30 05:02:00;;;;;;;5.65;3.25;;;;;;;16.81;63.99;100116.30;1753515;80;21138;-74
2021/05/30 05:04:27;;;;;;;6.15;2.85;;;;;;;16.85;63.72;100112.32;1734134;80;21181;-71
2021/05/30 05:06:53;;;;;;;5.03;3.10;;;;;;;16.91;63.73;100108.14;1746167;79;21177;-69
2021/05/30 05:09:20;;;;;;;4.97;2.75;;;;;;;16.96;63.46;100106.31;1746176;79;21147;-69
2021/05/30 05:13:51;;;;;;;6.78;3.35;;;;;;;17.15;62.80;100113.08;1798949;77;22702;-67
2021/05/30 05:16:17;;;;;;;6.22;2.80;;;;;;;17.16;61.73;100115.53;1766054;80;21056;-67
2021/05/30 05:18:44;;;;;;;5.03;2.52;;;;;;;17.15;61.63;100111.23;1745832;79;21643;-68
2021/05/30 05:21:10;;;;;;;6.35;3.08;;;;;;;17.13;61.79;100115.91;1766618;79;21006;-66
2021/05/30 05:23:37;;;;;;;5.60;2.67;;;;;;;17.11;61.28;100106.42;1761353;80;21123;-66
2021/05/30 05:26:04;;;;;;;3.85;2.02;;;;;;;17.07;60.43;100105.44;1740642;80;20989;-66
2021/05/30 05:28:31;;;;;;;3.80;2.00;;;;;;;17.08;60.07;100113.75;1737331;80;20960;-65
2021/05/30 05:30:58;;;;;;;4.40;2.37;;;;;;;17.14;60.00;100110.08;1759535;80;21334;-67
2021/05/30 05:33:24;;;;;;;4.62;2.40;;;;;;;17.17;60.22;100105.23;1732540;80;21008;-67
2021/05/30 05:35:51;;;;;;;4.87;1.92;;;;;;;17.20;59.47;100100.91;1746828;80;21046;-67
2021/05/30 05:38:18;;;;;;;4.75;2.30;;;;;;;17.23;59.30;100093.07;1761850;80;21117;-66
2021/05/30 05:40:45;;;;;;;4.40;2.15;;;;;;;17.23;58.88;100096.58;1756377;80;22351;-66
2021/05/30 05:43:12;;;;;;;4.70;1.65;;;;;;;17.23;59.32;100102.38;1749661;80;21149;-66
2021/05/30 05:45:38;;;;;;;4.10;2.08;;;;;;;17.22;58.91;100101.56;1742019;80;21098;-67
2021/05/30 05:48:12;;;;;;;5.00;2.02;;;;;;;17.26;58.62;100104.22;1739589;81;21084;-67
2021/05/30 05:50:39;;;;;;;4.20;1.98;;;;;;;17.28;59.13;100101.36;1740357;80;21092;-66
2021/05/30 05:53:06;;;;;;;5.75;2.20;;;;;;;17.29;59.08;100106.20;1747527;80;21127;-66
2021/05/30 05:55:34;;;;;;;5.87;2.27;;;;;;;17.32;58.75;100112.50;1754993;80;21704;-66
2021/05/30 05:58:00;;;;;;;4.42;2.00;;;;;;;17.32;58.82;100106.67;1723185;81;21107;-66
2021/05/30 06:00:28;;;;;;;3.87;1.95;;;;;;;17.31;58.82;100108.17;1743821;80;21047;-66
2021/05/30 06:02:55;;;;;;;5.05;1.80;;;;;;;17.31;58.75;100105.52;1724750;80;21410;-66
2021/05/30 06:05:23;;;;;;;4.97;2.25;;;;;;;17.31;58.39;100105.52;1748375;80;21087;-66
2021/05/30 06:07:52;;;;;;;4.40;2.20;;;;;;;17.31;58.64;100101.52;1734550;80;21219;-65
2021/05/30 06:10:26;;;;;;;4.30;2.00;;;;;;;17.41;58.51;100095.48;1757331;80;21676;-66
2021/05/30 06:12:54;;;;;;;4.10;1.77;;;;;;;17.49;57.83;100100.77;1733947;80;20913;-66
2021/05/30 06:15:22;;;;;;;4.78;2.25;;;;;;;17.54;58.57;100100.25;1693745;83;20970;-66
2021/05/30 06:18:02;;;;;;;4.35;1.95;;;;;;;17.62;57.86;100104.19;1715558;82;21559;-66
2021/05/30 06:20:24;;;;;;;4.30;1.98;;;;;;;17.65;57.57;100109.14;1712301;82;21083;-66
2021/05/30 06:22:50;;;;;;;4.08;2.17;;;;;;;17.64;57.14;100115.48;1714269;83;20918;-65
2021/05/30 06:25:17;;;;;;;5.42;2.00;;;;;;;17.62;56.57;100120.97;1693476;83;21822;-66
2021/05/30 06:27:44;;;;;;;4.03;2.00;;;;;;;17.59;56.79;100116.52;1692936;83;21002;-65
2021/05/30 06:30:13;;;;;;;4.30;2.10;;;;;;;17.57;57.12;100120.67;1711826;82;21697;-66
2021/05/30 06:32:39;;;;;;;4.30;2.10;;;;;;;17.53;56.38;100126.00;1714231;83;22059;-66
2021/05/30 06:35:08;;;;;;;3.92;1.92;;;;;;;17.48;56.81;100130.20;1712772;82;21121;-66
2021/05/30 06:37:34;;;;;;;3.98;2.05;;;;;;;17.48;56.64;100135.52;1712031;82;21053;-66
2021/05/30 06:40:00;;;;;;;4.25;2.35;;;;;;;17.49;57.22;100130.02;1707368;82;21185;-66
2021/05/30 06:42:27;;;;;;;3.70;1.75;;;;;;;17.56;56.97;100128.31;1684199;83;21130;-66
2021/05/30 06:44:53;;;;;;;3.42;1.72;;;;;;;17.66;56.23;100130.76;1713363;82;21100;-66
2021/05/30 06:47:20;;;;;;;4.55;2.15;;;;;;;17.70;56.78;100124.10;1715740;82;21371;-66
2021/05/30 06:49:46;;;;;;;4.72;2.20;;;;;;;17.77;56.13;100134.84;1712080;83;21803;-67
2021/05/30 06:52:13;;;;;;;4.03;2.12;;;;;;;17.85;56.32;100134.80;1710170;82;21077;-66
2021/05/30 06:54:40;;;;;;;4.50;2.08;;;;;;;17.91;56.39;100138.13;1705283;83;21121;-66
2021/05/30 06:57:07;;;;;;;4.20;1.87;;;;;;;17.94;55.79;100139.62;1727851;82;21753;-66
2021/05/30 06:59:34;;;;;;;3.98;2.00;;;;;;;17.95;55.91;100151.90;1710133;82;21284;-66
2021/05/30 07:02:01;;;;;;;6.12;2.40;;;;;;;17.94;55.33;100151.08;1713058;82;21788;-65
2021/05/30 07:04:28;;;;;;;4.72;2.27;;;;;;;17.89;55.30;100152.63;1708167;82;21081;-65
2021/05/30 07:06:55;;;;;;;4.28;2.35;;;;;;;17.82;55.83;100147.97;1708675;82;21037;-64
2021/05/30 07:09:22;;;;;;;5.12;2.72;;;;;;;17.79;56.39;100151.48;1691732;83;21140;-64
2021/05/30 07:11:48;;;;;;;6.17;2.42;;;;;;;17.76;56.39;100149.17;1710820;82;21096;-64
2021/05/30 07:14:15;;;;;;;5.78;2.33;;;;;;;17.76;57.29;100149.17;1689817;83;21680;-64
2021/05/30 07:16:43;;;;;;;6.05;2.20;;;;;;;17.85;57.29;100154.75;1712156;82;21121;-64
2021/05/30 07:19:09;;;;;;;5.05;2.42;;;;;;;17.98;56.49;100156.36;1685059;83;21575;-64
2021/05/30 07:21:36;;;;;;;5.35;2.42;;;;;;;17.99;56.11;100160.70;1708746;82;21129;-65
2021/05/30 07:24:03;;;;;;;4.40;1.98;;;;;;;17.92;56.75;100163.75;1704953;83;21098;-65
2021/05/30 07:26:30;;;;;;;6.45;2.60;;;;;;;17.87;56.74;100164.78;1709650;82;21357;-64
2021/05/30 07:28:56;;;;;;;4.90;2.65;;;;;;;17.81;57.12;100165.44;1703004;82;21116;-64
2021/05/30 07:31:22;;;;;;;6.05;2.70;;;;;;;17.77;57.59;100174.28;1681899;83;21088;-66
2021/05/30 07:33:49;;;;;;;4.83;2.27;;;;;;;17.76;58.01;100173.12;1709945;83;21089;-65
2021/05/30 07:36:15;;;;;;;4.83;2.70;;;;;;;17.83;57.73;100170.08;1686978;83;21136;-65
2021/05/30 07:38:43;;;;;;;8.30;2.55;;;;;;;17.94;57.73;100168.39;1711529;83;21156;-65
2021/05/30 07:41:10;;;;;;;4.37;2.12;;;;;;;18.09;58.23;100171.12;1710794;82;21156;-65
2021/05/30 07:43:36;;;;;;;5.60;2.77;;;;;;;18.26;57.08;100170.49;1706139;83;21073;-66
2021/05/30 07:46:04;;;;;;;4.85;2.52;;;;;;;18.40;56.95;100166.73;1701528;83;21087;-66
2021/05/30 07:48:30;;;;;;;7.55;3.05;;;;;;;18.46;56.54;100171.31;1693533;82;22230;-66
2021/05/30 07:50:57;;;;;;;5.08;2.98;;;;;;;18.42;56.35;100176.18;1698352;83;21133;-65
2021/05/30 07:53:23;;;;;;;6.65;3.00;;;;;;;18.34;56.42;100175.76;1712486;82;21638;-66
2021/05/30 07:55:50;;;;;;;7.65;3.37;;;;;;;18.34;56.85;100169.10;1709365;83;21105;-67
2021/05/30 07:58:19;;;;;;;8.90;3.02;;;;;;;18.40;56.71;100174.20;1710565;82;21141;-67
2021/05/30 08:00:45;;;;;;;5.78;3.35;;;;;;;18.47;57.28;100175.14;1703836;82;21152;-66
2021/05/30 08:03:12;;;;;;;6.35;2.70;;;;;;;18.54;56.85;100169.44;1710800;82;22295;-69
2021/05/30 08:05:38;;;;;;;5.80;2.90;;;;;;;18.63;55.65;100161.38;1707636;82;21105;-67
2021/05/30 08:08:05;;;;;;;5.17;2.37;;;;;;;18.65;55.88;100160.16;1711223;82;21075;-68
2021/05/30 08:10:33;;;;;;;4.22;2.22;;;;;;;18.70;55.29;100160.45;1706776;82;21131;-66
2021/05/30 08:13:01;;;;;;;4.50;2.47;;;;;;;18.76;54.06;100158.88;1696668;82;21107;-66
2021/05/30 08:15:27;;;;;;;4.30;1.95;;;;;;;18.80;55.44;100158.86;1727317;82;21534;-67
2021/05/30 08:17:54;;;;;;;5.75;1.70;;;;;;;18.88;53.80;100164.66;1729581;82;21089;-67
2021/05/30 08:20:22;;;;;;;4.30;1.92;;;;;;;18.91;54.36;100173.59;1695444;82;21107;-66
2021/05/30 08:22:49;;;;;;;3.90;1.87;;;;;;;18.98;53.16;100164.36;1725251;82;21129;-67
2021/05/30 08:25:16;;;;;;;3.67;1.75;;;;;;;19.08;53.57;100163.58;1731848;82;21112;-68
2021/05/30 08:27:43;;;;;;;3.47;1.47;;;;;;;19.17;52.53;100154.49;1690047;82;21074;-67
2021/05/30 08:30:11;;;;;;;3.70;1.22;;;;;;;19.26;52.25;100168.04;1725007;82;21085;-66
2021/05/30 08:32:38;;;;;;;3.22;1.40;;;;;;;19.22;50.89;100167.28;1704788;82;21045;-65
2021/05/30 08:35:06;;;;;;;3.15;1.40;;;;;;;19.12;50.93;100167.55;1721927;82;21859;-66
2021/05/30 08:37:33;;;;;;;3.35;1.30;;;;;;;19.04;50.61;100169.80;1728063;81;21471;-66
2021/05/30 08:40:00;;;;;;;4.25;1.50;;;;;;;19.00;51.64;100175.70;1682516;83;21589;-66
2021/05/30 08:42:26;;;;;;;3.45;1.45;;;;;;;18.89;52.49;100171.11;1711449;83;21147;-66
2021/05/30 08:44:53;;;;;;;3.87;1.80;;;;;;;18.86;53.06;100171.98;1712485;82;21606;-67
2021/05/30 08:47:21;;;;;;;3.58;1.45;;;;;;;18.87;53.31;100168.32;1715918;82;21108;-67
2021/05/30 08:49:48;;;;;;;3.17;1.47;;;;;;;18.88;53.23;100177.98;1713411;82;21112;-67
2021/05/30 08:52:14;;;;;;;3.80;1.42;;;;;;;18.90;53.27;100173.30;1713546;82;21066;-68
2021/05/30 08:54:42;;;;;;;3.35;1.50;;;;;;;18.96;53.27;100175.20;1712788;82;21131;-68
2021/05/30 08:57:08;;;;;;;3.22;1.37;;;;;;;19.02;52.27;100178.48;1686776;82;21134;-67
2021/05/30 08:59:41;;;;;;;2.70;1.10;;;;;;;19.06;51.94;100174.46;1714088;83;21084;-66
2021/05/30 09:02:10;;;;;;;3.12;1.22;;;;;;;19.05;52.37;100174.64;1682987;83;21115;-67
2021/05/30 09:04:45;;;;;;;3.47;1.37;;;;;;;19.08;52.57;100188.43;1715023;82;21108;-66
2021/05/30 09:07:12;;;;;;;3.43;1.17;;;;;;;19.07;52.37;100181.43;1712251;82;21133;-66
2021/05/30 09:09:46;;;;;;;3.33;1.42;;;;;;;19.09;52.77;100187.41;1714472;82;21578;-67
2021/05/30 09:12:25;;;;;;;3.72;1.62;;;;;;;19.11;52.56;100184.06;1706514;82;21112;-67
2021/05/30 09:14:54;;;;;;;3.33;1.25;;;;;;;19.05;52.74;100194.64;1712580;81;21928;-67
2021/05/30 09:17:26;;;;;;;5.65;1.50;;;;;;;18.90;52.88;100201.28;1715029;82;21444;-66
2021/05/30 09:19:54;;;;;;;3.72;1.45;;;;;;;18.75;52.95;100214.03;1733921;80;21167;-67
2021/05/30 09:22:36;;;;;;;3.10;1.52;;;;;;;18.57;53.06;100206.87;1725826;80;22246;-66
2021/05/30 09:25:20;;;;;;;3.17;1.30;;;;;;;18.35;53.57;100214.69;1721023;80;21126;-67
2021/05/30 09:27:53;;;;;;;4.20;1.40;;;;;;;18.17;54.27;100215.48;1739243;81;21143;-66
2021/05/30 09:30:32;;;;;;;4.03;1.70;;;;;;;18.04;55.24;100212.57;1735240;80;21101;-65
2021/05/30 09:33:14;;;;;;;3.37;1.60;;;;;;;17.96;55.89;100224.93;1720294;81;21096;-65
2021/05/30 09:35:47;;;;;;;7.15;1.87;;;;;;;17.97;56.43;100217.77;1729092;81;21088;-65
2021/05/30 09:38:37;;;;;;;5.25;2.10;;;;;;;17.98;56.24;100219.44;1733345;82;21098;-65
2021/05/30 09:41:11;;;;;;;7.95;2.30;;;;;;;18.01;56.19;100220.42;1704112;81;21122;-65
2021/05/30 09:43:52;;;;;;;3.65;2.00;;;;;;;17.99;56.82;100225.09;1734183;80;21001;-65
2021/05/30 09:46:23;;;;;;;4.78;2.00;;;;;;;17.92;56.73;100231.62;1731104;80;21662;-65
2021/05/30 09:48:55;;;;;;;4.97;1.95;;;;;;;17.85;57.15;100233.78;1739632;80;21090;-66
2021/05/30 09:51:36;;;;;;;4.25;2.17;;;;;;;17.79;57.46;100232.14;1732322;80;21442;-65
2021/05/30 09:54:14;;;;;;;4.03;1.92;;;;;;;17.73;57.73;100236.00;1666946;84;21156;-65
2021/05/30 09:56:55;;;;;;;5.12;2.10;;;;;;;17.73;58.51;100237.33;1744031;80;21076;-65
2021/05/30 09:59:23;;;;;;;4.28;2.08;;;;;;;17.80;57.90;100231.63;1733004;82;21370;-65
2021/05/30 10:01:58;;;;;;;4.65;2.30;;;;;;;17.87;58.18;100237.13;1711533;81;21056;-65
2021/05/30 10:04:33;;;;;;;4.67;1.97;;;;;;;17.86;57.89;100230.95;1728288;82;21653;-65
2021/05/30 10:07:05;;;;;;;4.97;2.50;;;;;;;17.85;57.94;100235.11;1727523;80;21342;-65
2021/05/30 10:09:31;;;;;;;5.35;2.45;;;;;;;17.83;58.14;100236.61;1741970;80;21061;-66
2021/05/30 10:11:58;;;;;;;5.20;2.87;;;;;;;17.80;57.52;100238.28;1734907;81;22222;-65
2021/05/30 10:14:26;;;;;;;5.12;2.00;;;;;;;17.77;57.58;100237.30;1689569;83;21140;-65
2021/05/30 10:16:53;;;;;;;7.30;2.77;;;;;;;17.75;57.89;100232.66;1714335;82;22212;-65
2021/05/30 10:19:36;;;;;;;5.72;2.17;;;;;;;17.81;57.62;100235.97;1708205;82;21073;-65
2021/05/30 10:22:03;;;;;;;8.45;2.55;;;;;;;17.86;57.89;100237.60;1705124;82;21101;-65
2021/05/30 10:24:30;;;;;;;4.95;2.33;;;;;;;17.90;57.26;100233.61;1713677;82;21105;-65
2021/05/30 10:27:24;;;;;;;4.22;2.17;;;;;;;17.93;57.96;100235.92;1721330;82;21076;-65
2021/05/30 10:30:13;;;;;;;4.62;2.42;;;;;;;18.00;56.58;100233.39;1713361;82;21824;-64
2021/05/30 10:32:46;;;;;;;4.20;2.02;;;;;;;18.01;56.73;100229.23;1712025;82;21188;-64
2021/05/30 10:35:26;;;;;;;7.30;2.05;;;;;;;18.11;56.40;100229.52;1709394;82;21057;-64
2021/05/30 10:37:55;;;;;;;5.20;2.60;;;;;;;18.19;56.75;100239.61;1649535;85;21167;-66
2021/05/30 10:40:33;;;;;;;4.40;2.02;;;;;;;18.30;55.96;100240.21;1658272;84;21647;-64
2021/05/30 10:43:13;;;;;;;4.33;2.33;;;;;;;18.31;55.88;100244.55;1650584;84;21157;-65
2021/05/30 10:45:54;;;;;;;3.85;1.80;;;;;;;18.25;55.99;100246.06;1655611;84;21152;-65
2021/05/30 10:48:20;;;;;;;4.47;2.25;;;;;;;18.23;55.64;100249.41;1625499;86;21093;-65
2021/05/30 10:51:11;;;;;;;4.33;2.30;;;;;;;18.29;55.73;100254.52;1633256;86;21165;-66
2021/05/30 10:53:39;;;;;;;;;;;;;;;18.41;55.77;100260.27;1656103;85;21403;-65
2021/05/30 10:56:30;;;;;;;5.50;2.17;;;;;;;18.52;54.80;100254.53;1660253;85;21186;-65
2021/05/30 10:59:15;;;;;;;5.28;2.65;;;;;;;18.47;54.93;100251.06;1617028;86;21156;-64
2021/05/30 11:01:50;;;;;;;5.37;2.62;;;;;;;18.45;55.25;100255.75;1674487;85;21135;-65
2021/05/30 11:04:33;;;;;;;5.03;2.40;;;;;;;18.34;55.48;100256.16;1623648;87;21660;-65
2021/05/30 11:07:09;;;;;;;5.20;2.65;;;;;;;18.26;55.83;100261.56;1673523;83;21129;-65
2021/05/30 11:09:58;;;;;;;5.75;2.52;;;;;;;18.17;56.60;100261.60;1650907;85;21147;-64
2021/05/30 11:12:32;;;;;;;4.85;2.50;;;;;;;18.00;57.28;100264.86;1658036;84;21125;-65
2021/05/30 11:15:16;;;;;;;5.58;2.72;;;;;;;17.83;57.68;100275.20;1665728;83;21089;-66
2021/05/30 11:17:50;;;;;;;6.80;2.20;;;;;;;17.60;57.92;100283.09;1678915;83;21093;-65
2021/05/30 11:20:26;;;;;;;5.12;2.95;;;;;;;17.40;58.75;100282.17;1736222;80;21610;-65
2021/05/30 11:23:01;;;;;;;4.92;2.77;;;;;;;17.35;58.58;100292.48;1723760;81;21152;-65
2021/05/30 11:25:52;;;;;;;5.97;3.30;;;;;;;17.26;59.45;100304.98;1732106;80;20949;-65
2021/05/30 11:28:21;;;;;;;4.75;2.70;;;;;;;17.18;59.72;100302.33;1744860;80;20994;-65
2021/05/30 11:31:00;;;;;;;4.75;2.62;;;;;;;17.10;60.32;100308.97;1744236;80;21119;-65
2021/05/30 11:33:40;;;;;;;4.92;2.67;;;;;;;16.97;60.36;100312.13;1744639;80;21080;-65
2021/05/30 11:36:07;;;;;;;7.03;2.83;;;;;;;16.84;60.50;100317.07;1739471;80;21425;-66